sensor_id;sensor_type;location;lat;lon;timestamp;P1;durP1;ratioP1;P2;durP2;ratioP2
29412;SDS011;16389;50.126;8.450;2023-04-25T00:01:11;6.85;;;5.38;;
29412;SDS011;16389;50.126;8.450;2023-04-25T00:03:38;4.90;;;4.43;;
29412;SDS011;16389;50.126;8.450;2023-04-25T00:06:05;4.68;;;4.20;;
29412;SDS011;16389;50.126;8.450;2023-04-25T00:08:31;5.57;;;4.97;;
29412;SDS011;16389;50.126;8.450;2023-04-25T00:10:57;5.25;;;4.75;;
29412;SDS011;16389;50.126;8.450;2023-04-25T00:13:23;5.90;;;3.97;;
29412;SDS011;16389;50.126;8.450;2023-04-25T00:15:50;5.15;;;4.35;;
29412;SDS011;16389;50.126;8.450;2023-04-25T00:18:16;5.72;;;4.90;;
29412;SDS011;16389;50.126;8.450;2023-04-25T00:20:42;5.53;;;4.57;;
29412;SDS011;16389;50.126;8.450;2023-04-25T00:23:11;5.03;;;3.95;;
29412;SDS011;16389;50.126;8.450;2023-04-25T00:25:42;5.93;;;4.50;;
29412;SDS011;16389;50.126;8.450;2023-04-25T00:28:11;6.55;;;4.55;;
29412;SDS011;16389;50.126;8.450;2023-04-25T00:30:38;4.97;;;4.53;;
29412;SDS011;16389;50.126;8.450;2023-04-25T00:33:04;6.20;;;5.25;;
29412;SDS011;16389;50.126;8.450;2023-04-25T00:35:30;5.60;;;4.97;;
29412;SDS011;16389;50.126;8.450;2023-04-25T00:37:56;8.05;;;4.53;;
29412;SDS011;16389;50.126;8.450;2023-04-25T00:40:22;4.05;;;3.63;;
29412;SDS011;16389;50.126;8.450;2023-04-25T00:42:47;5.30;;;4.18;;
29412;SDS011;16389;50.126;8.450;2023-04-25T00:45:14;3.92;;;3.47;;
29412;SDS011;16389;50.126;8.450;2023-04-25T00:47:40;4.35;;;3.95;;
29412;SDS011;16389;50.126;8.450;2023-04-25T00:50:07;4.20;;;3.78;;
29412;SDS011;16389;50.126;8.450;2023-04-25T00:52:33;4.15;;;3.75;;
29412;SDS011;16389;50.126;8.450;2023-04-25T00:54:59;3.75;;;3.35;;
29412;SDS011;16389;50.126;8.450;2023-04-25T00:57:25;5.70;;;3.80;;
29412;SDS011;16389;50.126;8.450;2023-04-25T00:59:51;3.92;;;3.53;;
29412;SDS011;16389;50.126;8.450;2023-04-25T01:02:17;4.18;;;3.50;;
29412;SDS011;16389;50.126;8.450;2023-04-25T01:04:44;4.10;;;3.60;;
29412;SDS011;16389;50.126;8.450;2023-04-25T01:07:10;3.78;;;3.45;;
29412;SDS011;16389;50.126;8.450;2023-04-25T01:09:35;4.50;;;3.80;;
29412;SDS011;16389;50.126;8.450;2023-04-25T01:12:01;4.60;;;4.18;;
29412;SDS011;16389;50.126;8.450;2023-04-25T01:14:27;4.50;;;4.10;;
29412;SDS011;16389;50.126;8.450;2023-04-25T01:16:54;4.28;;;3.88;;
29412;SDS011;16389;50.126;8.450;2023-04-25T01:19:20;4.88;;;3.92;;
29412;SDS011;16389;50.126;8.450;2023-04-25T01:21:46;5.00;;;3.72;;
29412;SDS011;16389;50.126;8.450;2023-04-25T01:24:12;5.03;;;4.55;;
29412;SDS011;16389;50.126;8.450;2023-04-25T01:26:38;4.07;;;3.67;;
29412;SDS011;16389;50.126;8.450;2023-04-25T01:29:09;4.70;;;4.30;;
29412;SDS011;16389;50.126;8.450;2023-04-25T01:31:35;5.60;;;4.30;;
29412;SDS011;16389;50.126;8.450;2023-04-25T01:34:02;4.97;;;4.38;;
29412;SDS011;16389;50.126;8.450;2023-04-25T01:36:27;5.18;;;4.78;;
29412;SDS011;16389;50.126;8.450;2023-04-25T01:38:54;5.18;;;4.72;;
29412;SDS011;16389;50.126;8.450;2023-04-25T01:41:20;5.50;;;5.00;;
29412;SDS011;16389;50.126;8.450;2023-04-25T01:43:48;6.20;;;5.05;;
29412;SDS011;16389;50.126;8.450;2023-04-25T01:46:13;5.18;;;4.78;;
29412;SDS011;16389;50.126;8.450;2023-04-25T01:48:39;7.00;;;5.15;;
29412;SDS011;16389;50.126;8.450;2023-04-25T01:51:05;5.47;;;4.97;;
29412;SDS011;16389;50.126;8.450;2023-04-25T01:53:31;6.57;;;5.85;;
29412;SDS011;16389;50.126;8.450;2023-04-25T01:55:57;7.53;;;6.30;;
29412;SDS011;16389;50.126;8.450;2023-04-25T01:58:22;7.55;;;5.57;;
29412;SDS011;16389;50.126;8.450;2023-04-25T02:00:48;6.07;;;5.57;;
29412;SDS011;16389;50.126;8.450;2023-04-25T02:03:13;6.85;;;5.95;;
29412;SDS011;16389;50.126;8.450;2023-04-25T02:05:39;9.73;;;5.43;;
29412;SDS011;16389;50.126;8.450;2023-04-25T02:08:06;8.93;;;6.70;;
29412;SDS011;16389;50.126;8.450;2023-04-25T02:10:32;7.40;;;6.15;;
29412;SDS011;16389;50.126;8.450;2023-04-25T02:12:58;7.90;;;6.63;;
29412;SDS011;16389;50.126;8.450;2023-04-25T02:15:24;7.85;;;6.57;;
29412;SDS011;16389;50.126;8.450;2023-04-25T02:17:50;8.07;;;6.68;;
29412;SDS011;16389;50.126;8.450;2023-04-25T02:20:17;8.73;;;6.75;;
29412;SDS011;16389;50.126;8.450;2023-04-25T02:22:45;8.05;;;6.47;;
29412;SDS011;16389;50.126;8.450;2023-04-25T02:25:11;6.97;;;6.28;;
29412;SDS011;16389;50.126;8.450;2023-04-25T02:27:37;7.30;;;6.47;;
29412;SDS011;16389;50.126;8.450;2023-04-25T02:30:03;7.57;;;6.47;;
29412;SDS011;16389;50.126;8.450;2023-04-25T02:32:29;6.88;;;6.15;;
29412;SDS011;16389;50.126;8.450;2023-04-25T02:34:55;8.00;;;7.18;;
29412;SDS011;16389;50.126;8.450;2023-04-25T02:37:23;8.20;;;7.00;;
29412;SDS011;16389;50.126;8.450;2023-04-25T02:39:49;8.20;;;6.72;;
29412;SDS011;16389;50.126;8.450;2023-04-25T02:42:15;7.22;;;6.53;;
29412;SDS011;16389;50.126;8.450;2023-04-25T02:44:41;9.63;;;6.82;;
29412;SDS011;16389;50.126;8.450;2023-04-25T02:47:06;7.88;;;7.18;;
29412;SDS011;16389;50.126;8.450;2023-04-25T02:49:32;8.40;;;7.60;;
29412;SDS011;16389;50.126;8.450;2023-04-25T02:51:57;8.10;;;7.25;;
29412;SDS011;16389;50.126;8.450;2023-04-25T02:54:23;8.90;;;6.95;;
29412;SDS011;16389;50.126;8.450;2023-04-25T02:56:49;9.27;;;6.85;;
29412;SDS011;16389;50.126;8.450;2023-04-25T02:59:14;9.40;;;5.68;;
29412;SDS011;16389;50.126;8.450;2023-04-25T03:01:40;9.57;;;6.20;;
29412;SDS011;16389;50.126;8.450;2023-04-25T03:04:06;8.73;;;5.45;;
29412;SDS011;16389;50.126;8.450;2023-04-25T03:06:31;6.55;;;5.20;;
29412;SDS011;16389;50.126;8.450;2023-04-25T03:08:57;7.63;;;4.97;;
29412;SDS011;16389;50.126;8.450;2023-04-25T03:11:24;7.05;;;5.93;;
29412;SDS011;16389;50.126;8.450;2023-04-25T03:13:50;10.18;;;6.00;;
29412;SDS011;16389;50.126;8.450;2023-04-25T03:16:16;8.38;;;5.55;;
29412;SDS011;16389;50.126;8.450;2023-04-25T03:18:45;10.57;;;6.13;;
29412;SDS011;16389;50.126;8.450;2023-04-25T03:21:11;9.95;;;5.85;;
29412;SDS011;16389;50.126;8.450;2023-04-25T03:23:36;8.20;;;6.00;;
29412;SDS011;16389;50.126;8.450;2023-04-25T03:26:02;9.75;;;6.63;;
29412;SDS011;16389;50.126;8.450;2023-04-25T03:28:28;10.00;;;6.47;;
29412;SDS011;16389;50.126;8.450;2023-04-25T03:30:54;7.93;;;5.35;;
29412;SDS011;16389;50.126;8.450;2023-04-25T03:33:19;12.32;;;5.57;;
29412;SDS011;16389;50.126;8.450;2023-04-25T03:35:45;6.32;;;4.80;;
29412;SDS011;16389;50.126;8.450;2023-04-25T03:38:11;5.90;;;5.30;;
29412;SDS011;16389;50.126;8.450;2023-04-25T03:40:36;7.07;;;4.82;;
29412;SDS011;16389;50.126;8.450;2023-04-25T03:43:02;7.55;;;5.55;;
29412;SDS011;16389;50.126;8.450;2023-04-25T03:45:27;9.70;;;5.55;;
29412;SDS011;16389;50.126;8.450;2023-04-25T03:47:53;10.10;;;5.35;;
29412;SDS011;16389;50.126;8.450;2023-04-25T03:50:19;8.10;;;4.60;;
29412;SDS011;16389;50.126;8.450;2023-04-25T03:52:45;7.65;;;5.35;;
29412;SDS011;16389;50.126;8.450;2023-04-25T03:55:10;8.02;;;5.18;;
29412;SDS011;16389;50.126;8.450;2023-04-25T03:57:36;9.45;;;5.15;;
29412;SDS011;16389;50.126;8.450;2023-04-25T04:00:02;11.25;;;5.68;;
29412;SDS011;16389;50.126;8.450;2023-04-25T04:02:29;7.43;;;5.28;;
29412;SDS011;16389;50.126;8.450;2023-04-25T04:04:54;10.18;;;5.93;;
29412;SDS011;16389;50.126;8.450;2023-04-25T04:07:21;21.50;;;6.43;;
29412;SDS011;16389;50.126;8.450;2023-04-25T04:09:47;11.68;;;6.50;;
29412;SDS011;16389;50.126;8.450;2023-04-25T04:12:13;10.93;;;6.82;;
29412;SDS011;16389;50.126;8.450;2023-04-25T04:14:40;10.93;;;6.55;;
29412;SDS011;16389;50.126;8.450;2023-04-25T04:17:05;10.68;;;6.40;;
29412;SDS011;16389;50.126;8.450;2023-04-25T04:19:31;15.25;;;6.13;;
29412;SDS011;16389;50.126;8.450;2023-04-25T04:21:57;12.93;;;6.72;;
29412;SDS011;16389;50.126;8.450;2023-04-25T04:24:23;12.20;;;6.72;;
29412;SDS011;16389;50.126;8.450;2023-04-25T04:26:49;11.48;;;6.20;;
29412;SDS011;16389;50.126;8.450;2023-04-25T04:29:15;6.90;;;5.80;;
29412;SDS011;16389;50.126;8.450;2023-04-25T04:34:14;9.43;;;5.85;;
29412;SDS011;16389;50.126;8.450;2023-04-25T04:36:41;11.73;;;6.38;;
29412;SDS011;16389;50.126;8.450;2023-04-25T04:39:07;9.95;;;7.18;;
29412;SDS011;16389;50.126;8.450;2023-04-25T04:41:34;10.73;;;5.95;;
29412;SDS011;16389;50.126;8.450;2023-04-25T04:43:59;10.20;;;6.68;;
29412;SDS011;16389;50.126;8.450;2023-04-25T04:46:26;8.88;;;5.47;;
29412;SDS011;16389;50.126;8.450;2023-04-25T04:48:53;14.02;;;6.68;;
29412;SDS011;16389;50.126;8.450;2023-04-25T04:51:18;8.98;;;6.22;;
29412;SDS011;16389;50.126;8.450;2023-04-25T04:53:45;13.38;;;6.80;;
29412;SDS011;16389;50.126;8.450;2023-04-25T04:56:11;10.02;;;5.63;;
29412;SDS011;16389;50.126;8.450;2023-04-25T04:58:36;13.38;;;6.03;;
29412;SDS011;16389;50.126;8.450;2023-04-25T05:01:02;10.52;;;5.70;;
29412;SDS011;16389;50.126;8.450;2023-04-25T05:03:28;6.85;;;5.85;;
29412;SDS011;16389;50.126;8.450;2023-04-25T05:05:54;8.85;;;5.43;;
29412;SDS011;16389;50.126;8.450;2023-04-25T05:08:20;11.07;;;6.57;;
29412;SDS011;16389;50.126;8.450;2023-04-25T05:10:45;10.75;;;6.13;;
29412;SDS011;16389;50.126;8.450;2023-04-25T05:13:11;10.68;;;6.47;;
29412;SDS011;16389;50.126;8.450;2023-04-25T05:15:37;10.55;;;6.03;;
29412;SDS011;16389;50.126;8.450;2023-04-25T05:18:03;12.73;;;5.40;;
29412;SDS011;16389;50.126;8.450;2023-04-25T05:20:28;7.70;;;5.25;;
29412;SDS011;16389;50.126;8.450;2023-04-25T05:22:54;7.63;;;4.35;;
29412;SDS011;16389;50.126;8.450;2023-04-25T05:25:20;7.13;;;5.32;;
29412;SDS011;16389;50.126;8.450;2023-04-25T05:27:45;6.50;;;4.25;;
29412;SDS011;16389;50.126;8.450;2023-04-25T05:30:11;8.10;;;4.72;;
29412;SDS011;16389;50.126;8.450;2023-04-25T05:32:37;7.00;;;4.68;;
29412;SDS011;16389;50.126;8.450;2023-04-25T05:35:03;11.45;;;5.05;;
29412;SDS011;16389;50.126;8.450;2023-04-25T05:37:28;8.63;;;4.70;;
29412;SDS011;16389;50.126;8.450;2023-04-25T05:39:56;7.75;;;4.85;;
29412;SDS011;16389;50.126;8.450;2023-04-25T05:42:21;7.10;;;4.68;;
29412;SDS011;16389;50.126;8.450;2023-04-25T05:44:47;9.20;;;4.80;;
29412;SDS011;16389;50.126;8.450;2023-04-25T05:47:13;7.45;;;4.75;;
29412;SDS011;16389;50.126;8.450;2023-04-25T05:49:38;6.47;;;4.60;;
29412;SDS011;16389;50.126;8.450;2023-04-25T05:52:04;10.90;;;4.85;;
29412;SDS011;16389;50.126;8.450;2023-04-25T05:54:29;7.35;;;4.70;;
29412;SDS011;16389;50.126;8.450;2023-04-25T05:56:58;8.57;;;4.10;;
29412;SDS011;16389;50.126;8.450;2023-04-25T05:59:24;8.35;;;4.53;;
29412;SDS011;16389;50.126;8.450;2023-04-25T06:01:50;8.15;;;4.72;;
29412;SDS011;16389;50.126;8.450;2023-04-25T06:04:16;7.05;;;4.68;;
29412;SDS011;16389;50.126;8.450;2023-04-25T06:06:42;6.32;;;3.78;;
29412;SDS011;16389;50.126;8.450;2023-04-25T06:09:08;5.82;;;3.95;;
29412;SDS011;16389;50.126;8.450;2023-04-25T06:11:33;4.68;;;4.15;;
29412;SDS011;16389;50.126;8.450;2023-04-25T06:14:02;8.82;;;4.38;;
29412;SDS011;16389;50.126;8.450;2023-04-25T06:16:28;5.28;;;3.63;;
29412;SDS011;16389;50.126;8.450;2023-04-25T06:18:54;9.93;;;3.53;;
29412;SDS011;16389;50.126;8.450;2023-04-25T06:21:19;5.25;;;3.78;;
29412;SDS011;16389;50.126;8.450;2023-04-25T06:23:45;4.13;;;3.17;;
29412;SDS011;16389;50.126;8.450;2023-04-25T06:26:10;3.60;;;2.97;;
29412;SDS011;16389;50.126;8.450;2023-04-25T06:28:36;6.30;;;3.47;;
29412;SDS011;16389;50.126;8.450;2023-04-25T06:31:02;4.93;;;3.03;;
29412;SDS011;16389;50.126;8.450;2023-04-25T06:33:28;5.80;;;3.55;;
29412;SDS011;16389;50.126;8.450;2023-04-25T06:35:53;4.45;;;2.85;;
29412;SDS011;16389;50.126;8.450;2023-04-25T06:38:19;4.32;;;3.15;;
29412;SDS011;16389;50.126;8.450;2023-04-25T06:40:45;3.53;;;2.47;;
29412;SDS011;16389;50.126;8.450;2023-04-25T06:43:10;4.68;;;3.28;;
29412;SDS011;16389;50.126;8.450;2023-04-25T06:45:36;5.00;;;2.92;;
29412;SDS011;16389;50.126;8.450;2023-04-25T06:48:02;7.10;;;3.10;;
29412;SDS011;16389;50.126;8.450;2023-04-25T06:50:27;7.03;;;3.58;;
29412;SDS011;16389;50.126;8.450;2023-04-25T06:52:53;5.28;;;2.83;;
29412;SDS011;16389;50.126;8.450;2023-04-25T06:55:19;4.95;;;2.92;;
29412;SDS011;16389;50.126;8.450;2023-04-25T06:57:44;12.15;;;3.38;;
29412;SDS011;16389;50.126;8.450;2023-04-25T07:00:10;4.97;;;3.53;;
29412;SDS011;16389;50.126;8.450;2023-04-25T07:02:36;4.22;;;2.55;;
29412;SDS011;16389;50.126;8.450;2023-04-25T07:05:02;4.85;;;2.45;;
29412;SDS011;16389;50.126;8.450;2023-04-25T07:07:29;8.23;;;3.35;;
29412;SDS011;16389;50.126;8.450;2023-04-25T07:09:55;4.07;;;2.83;;
29412;SDS011;16389;50.126;8.450;2023-04-25T07:12:21;2.65;;;2.30;;
29412;SDS011;16389;50.126;8.450;2023-04-25T07:14:47;6.10;;;2.50;;
29412;SDS011;16389;50.126;8.450;2023-04-25T07:17:12;3.40;;;1.95;;
29412;SDS011;16389;50.126;8.450;2023-04-25T07:19:38;7.07;;;2.35;;
29412;SDS011;16389;50.126;8.450;2023-04-25T07:22:05;2.88;;;2.00;;
29412;SDS011;16389;50.126;8.450;2023-04-25T07:24:31;5.05;;;1.90;;
29412;SDS011;16389;50.126;8.450;2023-04-25T07:26:57;4.32;;;2.88;;
29412;SDS011;16389;50.126;8.450;2023-04-25T07:29:23;2.63;;;2.10;;
29412;SDS011;16389;50.126;8.450;2023-04-25T07:31:49;4.30;;;2.22;;
29412;SDS011;16389;50.126;8.450;2023-04-25T07:34:14;3.78;;;2.15;;
29412;SDS011;16389;50.126;8.450;2023-04-25T07:36:40;5.70;;;2.10;;
29412;SDS011;16389;50.126;8.450;2023-04-25T07:39:06;5.72;;;2.33;;
29412;SDS011;16389;50.126;8.450;2023-04-25T07:41:34;8.23;;;2.50;;
29412;SDS011;16389;50.126;8.450;2023-04-25T07:43:59;6.95;;;2.42;;
29412;SDS011;16389;50.126;8.450;2023-04-25T07:46:25;8.25;;;2.88;;
29412;SDS011;16389;50.126;8.450;2023-04-25T07:48:51;3.13;;;2.30;;
29412;SDS011;16389;50.126;8.450;2023-04-25T07:51:17;5.88;;;1.77;;
29412;SDS011;16389;50.126;8.450;2023-04-25T07:53:44;4.07;;;2.45;;
29412;SDS011;16389;50.126;8.450;2023-04-25T07:56:10;6.15;;;2.55;;
29412;SDS011;16389;50.126;8.450;2023-04-25T07:58:36;3.05;;;1.95;;
29412;SDS011;16389;50.126;8.450;2023-04-25T08:01:02;3.20;;;2.10;;
29412;SDS011;16389;50.126;8.450;2023-04-25T08:03:28;2.53;;;1.90;;
29412;SDS011;16389;50.126;8.450;2023-04-25T08:05:54;2.83;;;2.13;;
29412;SDS011;16389;50.126;8.450;2023-04-25T08:08:20;3.92;;;2.50;;
29412;SDS011;16389;50.126;8.450;2023-04-25T08:10:46;5.80;;;2.38;;
29412;SDS011;16389;50.126;8.450;2023-04-25T08:13:13;5.82;;;3.20;;
29412;SDS011;16389;50.126;8.450;2023-04-25T08:15:38;3.63;;;2.50;;
29412;SDS011;16389;50.126;8.450;2023-04-25T08:18:04;3.75;;;1.70;;
29412;SDS011;16389;50.126;8.450;2023-04-25T08:20:30;2.13;;;1.80;;
29412;SDS011;16389;50.126;8.450;2023-04-25T08:22:55;2.25;;;1.60;;
29412;SDS011;16389;50.126;8.450;2023-04-25T08:25:21;3.20;;;2.42;;
29412;SDS011;16389;50.126;8.450;2023-04-25T08:27:47;3.85;;;2.90;;
29412;SDS011;16389;50.126;8.450;2023-04-25T08:30:13;3.95;;;2.50;;
29412;SDS011;16389;50.126;8.450;2023-04-25T08:32:39;5.40;;;2.33;;
29412;SDS011;16389;50.126;8.450;2023-04-25T08:35:05;2.42;;;2.20;;
29412;SDS011;16389;50.126;8.450;2023-04-25T08:37:31;3.92;;;2.08;;
29412;SDS011;16389;50.126;8.450;2023-04-25T08:39:58;4.22;;;2.90;;
29412;SDS011;16389;50.126;8.450;2023-04-25T08:42:24;2.20;;;2.00;;
29412;SDS011;16389;50.126;8.450;2023-04-25T08:44:53;4.60;;;2.55;;
29412;SDS011;16389;50.126;8.450;2023-04-25T08:47:20;3.55;;;2.45;;
29412;SDS011;16389;50.126;8.450;2023-04-25T08:49:47;5.10;;;2.40;;
29412;SDS011;16389;50.126;8.450;2023-04-25T08:52:14;4.00;;;2.78;;
29412;SDS011;16389;50.126;8.450;2023-04-25T08:54:49;6.28;;;2.58;;
29412;SDS011;16389;50.126;8.450;2023-04-25T08:57:16;2.65;;;2.22;;
29412;SDS011;16389;50.126;8.450;2023-04-25T08:59:43;6.72;;;3.17;;
29412;SDS011;16389;50.126;8.450;2023-04-25T09:02:11;4.75;;;2.85;;
29412;SDS011;16389;50.126;8.450;2023-04-25T09:04:42;5.82;;;3.00;;
29412;SDS011;16389;50.126;8.450;2023-04-25T09:07:09;4.00;;;2.75;;
29412;SDS011;16389;50.126;8.450;2023-04-25T09:09:34;6.80;;;3.22;;
29412;SDS011;16389;50.126;8.450;2023-04-25T09:12:01;6.28;;;2.83;;
29412;SDS011;16389;50.126;8.450;2023-04-25T09:14:27;5.85;;;2.50;;
29412;SDS011;16389;50.126;8.450;2023-04-25T09:19:25;6.30;;;2.75;;
29412;SDS011;16389;50.126;8.450;2023-04-25T09:21:54;4.50;;;3.08;;
29412;SDS011;16389;50.126;8.450;2023-04-25T09:24:35;5.57;;;2.55;;
29412;SDS011;16389;50.126;8.450;2023-04-25T09:29:32;2.85;;;2.35;;
29412;SDS011;16389;50.126;8.450;2023-04-25T09:34:45;3.45;;;2.92;;
29412;SDS011;16389;50.126;8.450;2023-04-25T09:37:16;5.63;;;2.80;;
29412;SDS011;16389;50.126;8.450;2023-04-25T09:39:47;3.00;;;2.50;;
29412;SDS011;16389;50.126;8.450;2023-04-25T09:42:14;3.67;;;3.05;;
29412;SDS011;16389;50.126;8.450;2023-04-25T09:44:42;3.63;;;2.75;;
29412;SDS011;16389;50.126;8.450;2023-04-25T09:47:14;3.17;;;2.53;;
29412;SDS011;16389;50.126;8.450;2023-04-25T09:49:43;4.35;;;2.42;;
29412;SDS011;16389;50.126;8.450;2023-04-25T09:52:13;3.85;;;2.30;;
29412;SDS011;16389;50.126;8.450;2023-04-25T09:54:44;3.15;;;2.20;;
29412;SDS011;16389;50.126;8.450;2023-04-25T09:57:11;3.75;;;2.28;;
29412;SDS011;16389;50.126;8.450;2023-04-25T09:59:44;4.20;;;2.60;;
29412;SDS011;16389;50.126;8.450;2023-04-25T10:02:18;3.10;;;2.30;;
29412;SDS011;16389;50.126;8.450;2023-04-25T10:04:48;2.95;;;2.47;;
29412;SDS011;16389;50.126;8.450;2023-04-25T10:07:19;2.80;;;2.33;;
29412;SDS011;16389;50.126;8.450;2023-04-25T10:09:48;4.18;;;3.33;;
29412;SDS011;16389;50.126;8.450;2023-04-25T10:12:17;2.67;;;2.17;;
29412;SDS011;16389;50.126;8.450;2023-04-25T10:14:43;5.32;;;2.47;;
29412;SDS011;16389;50.126;8.450;2023-04-25T10:17:10;4.85;;;2.33;;
29412;SDS011;16389;50.126;8.450;2023-04-25T10:19:37;3.15;;;2.20;;
29412;SDS011;16389;50.126;8.450;2023-04-25T10:22:07;5.57;;;2.20;;
29412;SDS011;16389;50.126;8.450;2023-04-25T10:24:38;5.07;;;2.05;;
29412;SDS011;16389;50.126;8.450;2023-04-25T10:27:05;3.50;;;2.50;;
29412;SDS011;16389;50.126;8.450;2023-04-25T10:29:32;2.33;;;2.05;;
29412;SDS011;16389;50.126;8.450;2023-04-25T10:31:57;4.88;;;2.13;;
29412;SDS011;16389;50.126;8.450;2023-04-25T10:34:24;3.08;;;2.00;;
29412;SDS011;16389;50.126;8.450;2023-04-25T10:37:03;2.05;;;1.92;;
29412;SDS011;16389;50.126;8.450;2023-04-25T10:39:29;1.92;;;1.65;;
29412;SDS011;16389;50.126;8.450;2023-04-25T10:41:56;4.00;;;1.85;;
29412;SDS011;16389;50.126;8.450;2023-04-25T10:44:25;2.85;;;1.98;;
29412;SDS011;16389;50.126;8.450;2023-04-25T10:49:36;3.33;;;2.33;;
29412;SDS011;16389;50.126;8.450;2023-04-25T10:52:14;3.65;;;2.38;;
29412;SDS011;16389;50.126;8.450;2023-04-25T10:54:56;8.13;;;3.15;;
29412;SDS011;16389;50.126;8.450;2023-04-25T10:57:29;6.50;;;2.35;;
29412;SDS011;16389;50.126;8.450;2023-04-25T11:02:30;5.07;;;2.45;;
29412;SDS011;16389;50.126;8.450;2023-04-25T11:04:56;5.50;;;2.88;;
29412;SDS011;16389;50.126;8.450;2023-04-25T11:10:03;2.72;;;2.00;;
29412;SDS011;16389;50.126;8.450;2023-04-25T11:12:31;4.25;;;2.45;;
29412;SDS011;16389;50.126;8.450;2023-04-25T11:15:04;4.90;;;2.53;;
29412;SDS011;16389;50.126;8.450;2023-04-25T11:17:32;4.50;;;1.90;;
29412;SDS011;16389;50.126;8.450;2023-04-25T11:19:58;3.08;;;2.10;;
29412;SDS011;16389;50.126;8.450;2023-04-25T11:22:24;3.80;;;2.40;;
29412;SDS011;16389;50.126;8.450;2023-04-25T11:24:52;6.57;;;2.00;;
29412;SDS011;16389;50.126;8.450;2023-04-25T11:27:17;3.92;;;1.77;;
29412;SDS011;16389;50.126;8.450;2023-04-25T11:29:43;4.50;;;2.13;;
29412;SDS011;16389;50.126;8.450;2023-04-25T11:32:09;3.72;;;2.47;;
29412;SDS011;16389;50.126;8.450;2023-04-25T11:34:36;5.72;;;2.25;;
29412;SDS011;16389;50.126;8.450;2023-04-25T11:37:02;7.70;;;2.08;;
29412;SDS011;16389;50.126;8.450;2023-04-25T11:39:29;3.80;;;2.50;;
29412;SDS011;16389;50.126;8.450;2023-04-25T11:41:54;3.10;;;2.03;;
29412;SDS011;16389;50.126;8.450;2023-04-25T11:44:20;5.60;;;1.90;;
29412;SDS011;16389;50.126;8.450;2023-04-25T11:46:46;5.20;;;2.40;;
29412;SDS011;16389;50.126;8.450;2023-04-25T11:49:13;3.53;;;2.25;;
29412;SDS011;16389;50.126;8.450;2023-04-25T11:54:05;2.78;;;2.03;;
29412;SDS011;16389;50.126;8.450;2023-04-25T11:56:31;4.40;;;1.75;;
29412;SDS011;16389;50.126;8.450;2023-04-25T11:59:01;4.32;;;1.92;;
29412;SDS011;16389;50.126;8.450;2023-04-25T12:01:30;3.15;;;1.75;;
29412;SDS011;16389;50.126;8.450;2023-04-25T12:03:57;2.42;;;1.48;;
29412;SDS011;16389;50.126;8.450;2023-04-25T12:06:27;2.20;;;1.80;;
29412;SDS011;16389;50.126;8.450;2023-04-25T12:09:07;2.22;;;1.70;;
29412;SDS011;16389;50.126;8.450;2023-04-25T12:11:47;4.03;;;1.65;;
29412;SDS011;16389;50.126;8.450;2023-04-25T12:14:24;2.80;;;2.00;;
29412;SDS011;16389;50.126;8.450;2023-04-25T12:16:55;5.75;;;1.98;;
29412;SDS011;16389;50.126;8.450;2023-04-25T12:19:22;5.85;;;1.92;;
29412;SDS011;16389;50.126;8.450;2023-04-25T12:21:49;4.13;;;1.50;;
29412;SDS011;16389;50.126;8.450;2023-04-25T12:24:21;3.72;;;2.08;;
29412;SDS011;16389;50.126;8.450;2023-04-25T12:26:52;4.28;;;2.30;;
29412;SDS011;16389;50.126;8.450;2023-04-25T12:29:23;4.25;;;2.30;;
29412;SDS011;16389;50.126;8.450;2023-04-25T12:31:50;3.70;;;1.63;;
29412;SDS011;16389;50.126;8.450;2023-04-25T12:34:17;4.03;;;2.45;;
29412;SDS011;16389;50.126;8.450;2023-04-25T12:36:43;8.90;;;2.28;;
29412;SDS011;16389;50.126;8.450;2023-04-25T12:39:20;2.72;;;1.35;;
29412;SDS011;16389;50.126;8.450;2023-04-25T12:41:47;9.60;;;2.78;;
29412;SDS011;16389;50.126;8.450;2023-04-25T12:44:13;2.67;;;1.80;;
29412;SDS011;16389;50.126;8.450;2023-04-25T12:46:39;4.72;;;1.60;;
29412;SDS011;16389;50.126;8.450;2023-04-25T12:49:06;4.63;;;1.92;;
29412;SDS011;16389;50.126;8.450;2023-04-25T12:51:33;3.35;;;1.63;;
29412;SDS011;16389;50.126;8.450;2023-04-25T12:54:00;5.13;;;2.13;;
29412;SDS011;16389;50.126;8.450;2023-04-25T12:56:26;2.83;;;2.30;;
29412;SDS011;16389;50.126;8.450;2023-04-25T12:58:52;4.45;;;1.88;;
29412;SDS011;16389;50.126;8.450;2023-04-25T13:01:19;3.33;;;2.15;;
29412;SDS011;16389;50.126;8.450;2023-04-25T13:03:48;5.17;;;1.93;;
29412;SDS011;16389;50.126;8.450;2023-04-25T13:06:14;4.95;;;2.13;;
29412;SDS011;16389;50.126;8.450;2023-04-25T13:08:40;2.35;;;2.05;;
29412;SDS011;16389;50.126;8.450;2023-04-25T13:11:07;2.97;;;1.95;;
29412;SDS011;16389;50.126;8.450;2023-04-25T13:13:33;2.83;;;2.03;;
29412;SDS011;16389;50.126;8.450;2023-04-25T13:16:02;2.78;;;1.90;;
29412;SDS011;16389;50.126;8.450;2023-04-25T13:18:32;5.00;;;2.30;;
29412;SDS011;16389;50.126;8.450;2023-04-25T13:20:58;5.55;;;2.88;;
29412;SDS011;16389;50.126;8.450;2023-04-25T13:23:26;6.60;;;2.55;;
29412;SDS011;16389;50.126;8.450;2023-04-25T13:25:53;5.75;;;2.10;;
29412;SDS011;16389;50.126;8.450;2023-04-25T13:28:20;4.07;;;2.25;;
29412;SDS011;16389;50.126;8.450;2023-04-25T13:30:46;4.80;;;2.58;;
29412;SDS011;16389;50.126;8.450;2023-04-25T13:33:13;3.65;;;1.90;;
29412;SDS011;16389;50.126;8.450;2023-04-25T13:35:39;4.72;;;2.33;;
29412;SDS011;16389;50.126;8.450;2023-04-25T13:38:06;3.97;;;2.05;;
29412;SDS011;16389;50.126;8.450;2023-04-25T13:40:31;3.50;;;1.95;;
29412;SDS011;16389;50.126;8.450;2023-04-25T13:42:58;2.42;;;1.60;;
29412;SDS011;16389;50.126;8.450;2023-04-25T13:45:24;4.50;;;1.77;;
29412;SDS011;16389;50.126;8.450;2023-04-25T13:47:50;2.25;;;1.70;;
29412;SDS011;16389;50.126;8.450;2023-04-25T13:50:15;4.60;;;1.30;;
29412;SDS011;16389;50.126;8.450;2023-04-25T13:52:42;4.70;;;1.35;;
29412;SDS011;16389;50.126;8.450;2023-04-25T13:55:08;2.25;;;1.85;;
29412;SDS011;16389;50.126;8.450;2023-04-25T13:57:35;3.30;;;2.10;;
29412;SDS011;16389;50.126;8.450;2023-04-25T14:00:02;1.60;;;1.20;;
29412;SDS011;16389;50.126;8.450;2023-04-25T14:02:33;4.25;;;2.17;;
29412;SDS011;16389;50.126;8.450;2023-04-25T14:04:59;3.55;;;1.23;;
29412;SDS011;16389;50.126;8.450;2023-04-25T14:07:26;3.85;;;1.70;;
29412;SDS011;16389;50.126;8.450;2023-04-25T14:09:52;2.88;;;1.50;;
29412;SDS011;16389;50.126;8.450;2023-04-25T14:12:17;1.83;;;1.13;;
29412;SDS011;16389;50.126;8.450;2023-04-25T14:14:43;2.15;;;1.20;;
29412;SDS011;16389;50.126;8.450;2023-04-25T14:17:09;2.67;;;1.10;;
29412;SDS011;16389;50.126;8.450;2023-04-25T14:19:34;2.78;;;1.52;;
29412;SDS011;16389;50.126;8.450;2023-04-25T14:22:00;5.32;;;1.40;;
29412;SDS011;16389;50.126;8.450;2023-04-25T14:24:26;1.80;;;1.45;;
29412;SDS011;16389;50.126;8.450;2023-04-25T14:26:51;1.95;;;1.08;;
29412;SDS011;16389;50.126;8.450;2023-04-25T14:29:17;1.58;;;1.40;;
29412;SDS011;16389;50.126;8.450;2023-04-25T14:31:43;2.78;;;1.38;;
29412;SDS011;16389;50.126;8.450;2023-04-25T14:34:09;2.78;;;1.45;;
29412;SDS011;16389;50.126;8.450;2023-04-25T14:36:36;1.90;;;1.50;;
29412;SDS011;16389;50.126;8.450;2023-04-25T14:39:02;3.28;;;1.50;;
29412;SDS011;16389;50.126;8.450;2023-04-25T14:41:29;6.57;;;1.40;;
29412;SDS011;16389;50.126;8.450;2023-04-25T14:43:55;2.85;;;1.35;;
29412;SDS011;16389;50.126;8.450;2023-04-25T14:46:21;2.80;;;1.50;;
29412;SDS011;16389;50.126;8.450;2023-04-25T14:48:48;3.55;;;1.63;;
29412;SDS011;16389;50.126;8.450;2023-04-25T14:51:14;2.88;;;1.50;;
29412;SDS011;16389;50.126;8.450;2023-04-25T14:53:40;3.63;;;1.30;;
29412;SDS011;16389;50.126;8.450;2023-04-25T14:56:06;1.80;;;1.30;;
29412;SDS011;16389;50.126;8.450;2023-04-25T14:58:32;3.35;;;1.88;;
29412;SDS011;16389;50.126;8.450;2023-04-25T15:00:58;4.72;;;1.50;;
29412;SDS011;16389;50.126;8.450;2023-04-25T15:03:24;4.30;;;1.30;;